Time;durP1;ratioP1;P1;durP2;ratioP2;P2;SDS_P1;SDS_P2;PMS_P1;PMS_P2;Temp;Humidity;BMP_temperature;BMP_pressure;BME280_temperature;BME280_humidity;BME280_pressure;Samples;Min_cycle;Max_cycle;Signal;HPM_P1;HPM_P2
2021/12/16 00:02:59;;;;;;;14.25;12.82;;;;;;;2.84;100.00;97461.53;5092905;28;24424;-73
2021/12/16 00:05:42;;;;;;;14.93;13.38;;;;;;;2.87;100.00;97462.38;5093204;28;24418;-73
2021/12/16 00:08:17;;;;;;;15.07;13.30;;;;;;;2.85;100.00;97458.09;5093357;28;24441;-73
2021/12/16 00:10:52;;;;;;;15.15;13.75;;;;;;;2.85;100.00;97458.94;5093067;28;24499;-74
2021/12/16 00:32:42;;;;;;;11.98;10.88;;;;;;;2.87;100.00;97464.09;5092581;28;24453;-73
2021/12/16 00:35:08;;;;;;;13.05;10.75;;;;;;;2.84;100.00;97464.09;5093357;28;24414;-72
2021/12/16 00:37:35;;;;;;;12.05;10.77;;;;;;;2.85;100.00;97461.50;5092647;28;24422;-73
2021/12/16 00:40:03;;;;;;;11.53;10.47;;;;;;;2.85;100.00;97465.78;5092446;28;24410;-74
2021/12/16 00:42:39;;;;;;;11.90;10.80;;;;;;;2.73;100.00;97478.66;5093259;28;24422;-73
2021/12/16 00:45:27;;;;;;;11.52;10.45;;;;;;;2.75;100.00;97470.13;5092754;28;24424;-73
2021/12/16 00:47:59;;;;;;;12.00;10.90;;;;;;;2.67;100.00;97480.38;5092644;28;24787;-73
2021/12/16 00:56:01;;;;;;;12.32;10.88;;;;;;;2.78;100.00;97470.09;5092241;28;24448;-73
2021/12/16 00:58:32;;;;;;;13.45;12.23;;;;;;;2.72;100.00;97476.97;5092283;28;24494;-73
2021/12/16 01:01:06;;;;;;;13.57;11.65;;;;;;;2.79;100.00;97466.69;5092054;28;24425;-73
2021/12/16 01:03:41;;;;;;;14.60;12.23;;;;;;;2.77;100.00;97467.53;5092166;28;24575;-73
2021/12/16 01:06:27;;;;;;;15.05;13.32;;;;;;;2.74;100.00;97470.94;5091978;28;24992;-74
2021/12/16 01:09:14;;;;;;;18.58;12.82;;;;;;;2.68;100.00;97458.22;5092719;28;24525;-74
2021/12/16 01:34:15;;;;;;;12.23;11.13;;;;;;;2.69;100.00;97477.81;5091532;28;24410;-74
2021/12/16 01:37:07;;;;;;;11.75;10.65;;;;;;;2.74;100.00;97468.41;5091405;28;24822;-74
2021/12/16 01:47:57;;;;;;;11.43;10.37;;;;;;;2.58;100.00;97479.56;5091282;28;24458;-73
2021/12/16 01:50:30;;;;;;;11.55;10.23;;;;;;;2.53;100.00;97492.38;5091543;28;24532;-73
2021/12/16 01:55:39;;;;;;;11.50;10.40;;;;;;;2.58;100.00;97484.69;5091415;28;24405;-73
2021/12/16 01:58:13;;;;;;;13.02;11.52;;;;;;;2.54;100.00;97495.78;5091739;28;24962;-73
2021/12/16 02:00:53;;;;;;;12.85;11.32;;;;;;;2.57;100.00;97480.44;5091071;28;24939;-74
2021/12/16 02:03:25;;;;;;;13.05;11.85;;;;;;;2.51;100.00;97478.72;5090662;28;24456;-74
2021/12/16 02:06:03;;;;;;;12.27;11.03;;;;;;;2.62;100.00;97476.97;5091078;28;24496;-73
2021/12/16 02:08:35;;;;;;;14.23;12.07;;;;;;;2.57;100.00;97477.88;5091190;28;24503;-72
2021/12/16 02:11:18;;;;;;;13.23;11.97;;;;;;;2.56;100.00;97461.69;5091264;28;24480;-72
2021/12/16 02:28:04;;;;;;;13.35;11.95;;;;;;;2.55;100.00;97465.06;5090896;28;24784;-73
2021/12/16 02:33:36;;;;;;;12.15;11.05;;;;;;;2.52;100.00;97461.66;5090482;28;24576;-73
2021/12/16 02:36:15;;;;;;;14.35;10.70;;;;;;;2.65;100.00;97458.22;5090424;28;24422;-73
2021/12/16 02:38:46;;;;;;;13.05;11.75;;;;;;;2.60;100.00;97455.69;5090543;28;24529;-73
2021/12/16 02:41:13;;;;;;;12.90;11.80;;;;;;;2.55;100.00;97454.84;5090892;28;24452;-73
2021/12/16 02:49:20;;;;;;;13.65;12.25;;;;;;;2.46;100.00;97449.78;5083468;28;24479;-73
2021/12/16 02:51:47;;;;;;;13.07;11.77;;;;;;;2.44;100.00;97454.03;5090619;28;24422;-73
2021/12/16 02:54:16;;;;;;;12.32;11.15;;;;;;;2.40;100.00;97452.34;5090537;28;24429;-73
2021/12/16 02:56:43;;;;;;;12.57;11.43;;;;;;;2.45;100.00;97455.75;5090194;28;24410;-73
2021/12/16 02:59:09;;;;;;;12.02;10.82;;;;;;;2.50;100.00;97453.16;5090709;28;24434;-72
2021/12/16 03:01:38;;;;;;;13.32;12.13;;;;;;;2.39;100.00;97456.63;5090848;28;24433;-72
2021/12/16 03:04:08;;;;;;;12.93;11.73;;;;;;;2.49;100.00;97454.88;5090311;28;24453;-72
2021/12/16 03:06:35;;;;;;;12.05;10.48;;;;;;;2.57;100.00;97458.25;5090792;28;24517;-72
2021/12/16 03:09:07;;;;;;;13.90;12.57;;;;;;;2.42;100.00;97460.88;5090493;28;24421;-73
2021/12/16 03:11:44;;;;;;;14.13;12.82;;;;;;;2.40;100.00;97458.31;5090266;28;24425;-73
2021/12/16 03:14:29;;;;;;;15.57;13.25;;;;;;;2.52;100.00;97462.56;5090057;28;24415;-73
2021/12/16 03:17:10;;;;;;;16.77;14.02;;;;;;;2.60;100.00;97462.53;5090123;28;24557;-73
2021/12/16 03:19:49;;;;;;;24.33;19.05;;;;;;;2.55;100.00;97462.50;5090317;28;24429;-73
2021/12/16 03:22:35;;;;;;;18.52;16.35;;;;;;;2.59;100.00;97464.19;5090507;28;24982;-73
2021/12/16 03:25:14;;;;;;;14.52;13.02;;;;;;;2.64;100.00;97459.09;5090217;28;24531;-73
2021/12/16 03:33:28;;;;;;;12.27;11.18;;;;;;;2.65;100.00;97451.38;5089509;28;24441;-72
2021/12/16 03:36:05;;;;;;;12.73;11.53;;;;;;;2.71;100.00;97442.84;5091160;28;24977;-72
2021/12/16 03:38:34;;;;;;;12.40;10.53;;;;;;;2.73;100.00;97451.34;5094390;28;24765;-72
2021/12/16 03:41:01;;;;;;;13.35;11.43;;;;;;;2.74;100.00;97449.63;5093823;28;24414;-73
2021/12/16 03:43:30;;;;;;;13.43;12.13;;;;;;;2.81;100.00;97448.75;5093475;28;24422;-73
2021/12/16 03:48:51;;;;;;;13.05;11.85;;;;;;;2.55;100.00;97446.31;5093661;28;24510;-73
2021/12/16 03:51:20;;;;;;;13.85;12.45;;;;;;;2.43;100.00;97453.19;5093687;28;24428;-72
2021/12/16 03:53:49;;;;;;;13.05;11.85;;;;;;;2.50;100.00;97461.69;5093669;28;24417;-73
2021/12/16 03:56:17;;;;;;;12.52;11.32;;;;;;;2.57;100.00;97460.81;5093411;28;24432;-73
2021/12/16 03:58:45;;;;;;;13.35;11.30;;;;;;;2.60;100.00;97465.06;5093571;28;24421;-73
2021/12/16 04:01:14;;;;;;;12.10;10.90;;;;;;;2.62;100.00;97469.31;5093464;28;24418;-72
2021/12/16 04:03:41;;;;;;;13.18;11.98;;;;;;;2.61;100.00;97477.84;5093541;28;24422;-73
2021/12/16 04:06:08;;;;;;;12.80;11.57;;;;;;;2.60;100.00;97476.16;5093129;28;24421;-73
2021/12/16 04:08:35;;;;;;;12.23;11.23;;;;;;;2.63;100.00;97475.25;5093690;28;24437;-73
2021/12/16 04:11:07;;;;;;;13.57;12.32;;;;;;;2.52;100.00;97474.47;5093411;28;24414;-73
2021/12/16 04:13:41;;;;;;;13.20;11.82;;;;;;;2.50;100.00;97474.47;5093301;28;24959;-73
2021/12/16 04:16:10;;;;;;;13.52;12.32;;;;;;;2.57;100.00;97478.72;5092969;28;24418;-73
2021/12/16 04:18:36;;;;;;;13.30;11.93;;;;;;;2.62;100.00;97479.53;5093142;28;24429;-72
2021/12/16 04:21:03;;;;;;;15.03;12.23;;;;;;;2.61;100.00;97472.72;5092958;28;24517;-72
2021/12/16 04:23:29;;;;;;;14.13;12.82;;;;;;;2.52;100.00;97471.91;5092708;28;24430;-72
2021/12/16 04:25:56;;;;;;;14.25;12.95;;;;;;;2.54;100.00;97468.50;5092708;28;25009;-73
2021/12/16 04:28:29;;;;;;;13.60;12.40;;;;;;;2.59;100.00;97473.59;5092905;28;24406;-73
2021/12/16 04:30:56;;;;;;;15.90;13.93;;;;;;;2.48;100.00;97475.34;5092764;28;24426;-73
2021/12/16 04:33:24;;;;;;;13.65;12.43;;;;;;;2.48;100.00;97475.34;5092880;28;24433;-72
2021/12/16 04:35:51;;;;;;;16.45;14.02;;;;;;;2.49;100.00;97477.91;5093090;28;24476;-72
2021/12/16 04:38:17;;;;;;;14.15;12.75;;;;;;;2.55;100.00;97479.56;5093823;28;24426;-72
2021/12/16 04:40:46;;;;;;;14.45;13.05;;;;;;;2.52;100.00;97479.56;5093265;28;24433;-72
2021/12/16 04:43:19;;;;;;;18.95;16.25;;;;;;;2.54;100.00;97476.16;5092538;28;24803;-73
2021/12/16 04:45:46;;;;;;;15.30;13.95;;;;;;;2.56;100.00;97473.59;5092021;28;24438;-72
2021/12/16 04:48:13;;;;;;;15.27;13.68;;;;;;;2.52;100.00;97483.00;5091662;28;24425;-72
2021/12/16 04:50:41;;;;;;;18.25;16.25;;;;;;;2.46;100.00;97480.47;5092934;28;24425;-72
2021/12/16 04:53:08;;;;;;;14.40;12.93;;;;;;;2.41;100.00;97482.16;5092490;28;24497;-73
2021/12/16 04:55:34;;;;;;;14.35;13.02;;;;;;;2.44;100.00;97484.72;5092049;28;24433;-73
2021/12/16 04:58:01;;;;;;;13.80;12.52;;;;;;;2.54;100.00;97483.84;5092196;28;24418;-73
2021/12/16 05:00:27;;;;;;;12.52;11.50;;;;;;;2.58;100.00;97479.56;5092425;28;24433;-73
2021/12/16 05:02:55;;;;;;;14.70;13.27;;;;;;;2.60;100.00;97494.06;5092530;28;24426;-73
2021/12/16 05:05:22;;;;;;;13.77;12.35;;;;;;;2.56;100.00;97483.81;5091955;28;24445;-73
2021/12/16 05:07:49;;;;;;;13.68;11.95;;;;;;;2.62;100.00;97487.22;5092138;28;24421;-73
2021/12/16 05:10:18;;;;;;;15.10;13.38;;;;;;;2.54;100.00;97486.41;5092104;28;24775;-73
2021/12/16 05:12:49;;;;;;;13.57;12.13;;;;;;;2.51;100.00;97486.41;5091843;28;24426;-73
2021/12/16 05:15:19;;;;;;;14.23;12.77;;;;;;;2.56;100.00;97492.38;5092070;28;24422;-72
2021/12/16 05:17:50;;;;;;;14.35;12.90;;;;;;;2.64;100.00;97497.47;5092467;28;24421;-73
2021/12/16 05:20:23;;;;;;;14.55;13.18;;;;;;;2.67;100.00;97495.75;5091951;28;24433;-73
2021/12/16 05:25:55;;;;;;;13.85;12.50;;;;;;;2.51;100.00;97501.75;5091469;28;24456;-73
2021/12/16 05:28:24;;;;;;;14.60;12.40;;;;;;;2.54;100.00;97506.00;5091885;28;24525;-73
2021/12/16 05:30:51;;;;;;;12.45;11.23;;;;;;;2.58;100.00;97506.00;5091744;28;24418;-73
2021/12/16 05:33:20;;;;;;;14.02;12.63;;;;;;;2.49;100.00;97511.16;5091654;28;24418;-73
2021/12/16 05:35:47;;;;;;;13.70;12.32;;;;;;;2.58;100.00;97517.94;5091223;28;24814;-73
2021/12/16 05:38:14;;;;;;;12.75;11.65;;;;;;;2.65;100.00;97522.19;5091697;28;24433;-73
2021/12/16 05:40:42;;;;;;;14.75;13.25;;;;;;;2.61;100.00;97523.88;5091950;28;24508;-73
2021/12/16 05:43:12;;;;;;;37.10;29.25;;;;;;;2.55;100.00;97521.34;5091595;28;24422;-73
2021/12/16 05:45:40;;;;;;;19.65;17.63;;;;;;;2.64;100.00;97523.88;5090974;28;24452;-73
2021/12/16 05:48:10;;;;;;;16.67;14.98;;;;;;;2.59;100.00;97533.25;5091174;28;24955;-73
2021/12/16 05:50:42;;;;;;;17.35;15.55;;;;;;;2.51;100.00;97546.94;5091874;28;24421;-72
2021/12/16 05:53:08;;;;;;;15.57;14.02;;;;;;;2.53;100.00;97545.25;5093112;28;24434;-72
2021/12/16 05:55:37;;;;;;;14.82;13.43;;;;;;;2.56;100.00;97548.63;5091801;28;24410;-72
2021/12/16 05:58:06;;;;;;;16.38;14.73;;;;;;;2.47;100.00;97550.34;5092851;28;24423;-72
2021/12/16 06:00:35;;;;;;;17.25;14.80;;;;;;;2.51;100.00;97552.91;5091174;28;24429;-72
2021/12/16 06:03:02;;;;;;;15.30;13.57;;;;;;;2.60;100.00;97554.59;5086911;28;24547;-73
2021/12/16 06:05:29;;;;;;;14.73;13.32;;;;;;;2.60;100.00;97555.44;5083285;28;24457;-73
2021/12/16 06:07:55;;;;;;;14.68;13.25;;;;;;;2.53;100.00;97550.34;5090899;28;24437;-73
2021/12/16 06:10:58;;;;;;;14.98;13.40;;;;;;;2.52;100.00;97552.06;5090987;28;24426;-72
2021/12/16 06:13:23;;;;;;;14.45;12.98;;;;;;;2.59;100.00;97551.16;5090585;28;24422;-72
2021/12/16 06:22:20;;;;;;;16.75;14.13;;;;;;;2.54;100.00;97540.09;5090837;28;24430;-72
2021/12/16 06:27:04;;;;;;;20.33;16.58;;;;;;;2.43;100.00;97559.75;5090316;28;24965;-73
2021/12/16 06:29:33;;;;;;;16.30;14.60;;;;;;;2.50;100.00;97558.88;5090766;28;24444;-73
2021/12/16 06:31:59;;;;;;;16.97;15.27;;;;;;;2.53;100.00;97556.31;5090392;28;24468;-73
2021/12/16 06:34:26;;;;;;;17.20;15.53;;;;;;;2.45;100.00;97558.06;5090679;28;24471;-73
2021/12/16 06:36:53;;;;;;;24.88;19.90;;;;;;;2.39;100.00;97552.94;5090254;28;25024;-73
2021/12/16 06:39:19;;;;;;;22.80;20.30;;;;;;;2.45;100.00;97559.72;5091508;28;24521;-73
2021/12/16 06:41:46;;;;;;;21.33;18.85;;;;;;;2.46;100.00;97562.31;5090890;28;24586;-72
2021/12/16 06:44:19;;;;;;;30.27;18.48;;;;;;;2.46;100.00;97564.84;5090415;28;24429;-73
2021/12/16 06:46:48;;;;;;;18.90;16.95;;;;;;;2.57;100.00;97568.25;5089908;28;24552;-73
2021/12/16 06:49:16;;;;;;;18.92;16.65;;;;;;;2.53;100.00;97556.31;5091217;28;24425;-73
2021/12/16 06:51:49;;;;;;;23.52;18.30;;;;;;;2.47;100.00;97564.00;5091574;28;24475;-72
2021/12/16 06:54:22;;;;;;;21.48;18.65;;;;;;;2.41;100.00;97562.31;5090686;28;24422;-73
2021/12/16 06:56:56;;;;;;;22.33;20.00;;;;;;;2.38;100.00;97570.00;5090166;28;24849;-73
2021/12/16 06:59:27;;;;;;;24.33;20.27;;;;;;;2.39;100.00;97569.13;5090331;28;24848;-74
2021/12/16 07:02:10;;;;;;;25.25;22.63;;;;;;;2.30;100.00;97569.16;5090921;28;24452;-73
2021/12/16 07:04:38;;;;;;;26.15;22.65;;;;;;;2.29;100.00;97569.13;5071031;28;24449;-72
2021/12/16 07:07:07;;;;;;;23.85;21.20;;;;;;;2.42;100.00;97578.50;5070272;28;24427;-72
2021/12/16 07:09:34;;;;;;;28.70;22.10;;;;;;;2.40;100.00;97581.03;5070324;28;24415;-73
2021/12/16 07:12:01;;;;;;;25.60;22.90;;;;;;;2.35;100.00;97584.47;5088656;28;24464;-73
2021/12/16 07:14:37;;;;;;;24.23;21.10;;;;;;;2.42;100.00;97586.19;5094462;28;25012;-72
2021/12/16 07:17:07;;;;;;;21.63;19.53;;;;;;;2.50;100.00;97579.34;5094532;28;24444;-72
2021/12/16 07:19:34;;;;;;;23.33;20.95;;;;;;;2.54;100.00;97580.19;5094252;28;24422;-72
2021/12/16 07:22:01;;;;;;;31.17;23.65;;;;;;;2.43;100.00;97588.72;5095967;27;24429;-72
2021/12/16 07:24:27;;;;;;;26.65;23.35;;;;;;;2.42;100.00;97583.63;5093698;28;25033;-73
2021/12/16 07:26:54;;;;;;;27.85;22.38;;;;;;;2.41;100.00;97589.56;5093290;28;24807;-73
2021/12/16 07:29:20;;;;;;;27.38;22.92;;;;;;;2.39;100.00;97581.91;5093368;28;24430;-73
2021/12/16 07:31:47;;;;;;;27.08;23.05;;;;;;;2.42;100.00;97587.03;5093902;28;24422;-73
2021/12/16 07:34:15;;;;;;;29.20;22.05;;;;;;;2.54;100.00;97592.97;5093598;28;24866;-72
2021/12/16 07:36:44;;;;;;;30.38;23.27;;;;;;;2.42;100.00;97593.84;5093589;28;24467;-73
2021/12/16 07:39:13;;;;;;;27.90;23.10;;;;;;;2.41;100.00;97589.56;5089023;28;24852;-73
2021/12/16 07:41:42;;;;;;;30.23;24.08;;;;;;;2.36;100.00;97589.59;5091247;28;24438;-71
2021/12/16 07:44:12;;;;;;;25.55;21.98;;;;;;;2.35;100.00;97592.16;5093392;28;24811;-71
2021/12/16 07:46:41;;;;;;;27.38;23.35;;;;;;;2.33;100.00;97589.56;5093954;28;24796;-72
2021/12/16 07:49:09;;;;;;;25.45;21.98;;;;;;;2.43;100.00;97598.94;5093638;28;24788;-74
2021/12/16 07:51:39;;;;;;;25.75;22.20;;;;;;;2.46;100.00;97598.09;5093845;28;24439;-71
2021/12/16 07:54:06;;;;;;;25.00;22.40;;;;;;;2.46;100.00;97603.22;5093722;28;24417;-71
2021/12/16 07:56:33;;;;;;;25.53;22.37;;;;;;;2.52;100.00;97597.22;5093263;28;24422;-72
2021/12/16 07:59:00;;;;;;;28.10;22.27;;;;;;;2.56;100.00;97599.81;5093420;28;24466;-72
2021/12/16 08:01:27;;;;;;;25.85;22.63;;;;;;;2.63;100.00;97604.06;5093269;28;24421;-72
2021/12/16 08:03:55;;;;;;;35.15;23.15;;;;;;;2.60;100.00;97601.50;5093331;28;24422;-72
2021/12/16 08:06:25;;;;;;;26.25;22.00;;;;;;;2.67;100.00;97607.47;5093308;28;25002;-72
2021/12/16 08:08:57;;;;;;;25.25;22.52;;;;;;;2.54;100.00;97610.88;5093658;28;24776;-71
2021/12/16 08:11:27;;;;;;;23.27;20.83;;;;;;;2.59;100.00;97616.81;5093733;28;24503;-72
2021/12/16 08:13:53;;;;;;;25.90;21.35;;;;;;;2.63;100.00;97621.97;5093546;28;24414;-72
2021/12/16 08:16:22;;;;;;;25.83;23.08;;;;;;;2.62;100.00;97627.06;5092916;28;24414;-71
2021/12/16 08:18:49;;;;;;;24.65;22.02;;;;;;;2.64;100.00;97628.78;5093505;28;24425;-71
2021/12/16 08:21:15;;;;;;;25.00;21.75;;;;;;;2.66;100.00;97637.28;5093264;28;24417;-72
2021/12/16 08:23:42;;;;;;;23.45;20.27;;;;;;;2.66;100.00;97633.88;5092843;28;24422;-72
2021/12/16 08:26:10;;;;;;;28.55;23.20;;;;;;;2.58;100.00;97636.44;5092938;28;24834;-71
2021/12/16 08:28:36;;;;;;;24.58;21.95;;;;;;;2.63;100.00;97650.09;5092823;28;24974;-73
2021/12/16 08:31:05;;;;;;;23.60;20.27;;;;;;;2.63;100.00;97641.53;5093093;28;24921;-71
2021/12/16 08:33:32;;;;;;;22.85;20.23;;;;;;;2.60;100.00;97639.88;5093141;28;24526;-71
2021/12/16 08:35:58;;;;;;;21.60;19.48;;;;;;;2.61;100.00;97643.28;5092885;28;24471;-72
2021/12/16 08:38:26;;;;;;;28.55;21.00;;;;;;;2.61;100.00;97641.56;5085126;28;24469;-72
2021/12/16 08:40:56;;;;;;;24.35;21.77;;;;;;;2.57;100.00;97634.75;5072840;28;24407;-72
2021/12/16 08:43:26;;;;;;;28.10;21.17;;;;;;;2.64;100.00;97640.72;5072537;28;24476;-72
2021/12/16 08:45:53;;;;;;;24.60;22.10;;;;;;;2.58;100.00;97648.38;5072126;28;24496;-72
2021/12/16 08:48:19;;;;;;;25.40;20.40;;;;;;;2.59;100.00;97653.47;5072904;28;24796;-71
2021/12/16 08:50:49;;;;;;;26.08;21.55;;;;;;;2.67;100.00;97649.22;5072814;28;24410;-72
2021/12/16 08:53:17;;;;;;;27.70;23.35;;;;;;;2.63;100.00;97647.53;5072569;28;24438;-72
2021/12/16 08:55:45;;;;;;;24.60;21.88;;;;;;;2.70;100.00;97657.75;5072116;28;24823;-72
2021/12/16 08:58:12;;;;;;;24.42;21.65;;;;;;;2.61;100.00;97656.91;5072439;28;24453;-72
2021/12/16 09:00:48;;;;;;;25.50;21.05;;;;;;;2.64;100.00;97651.78;5072321;28;25057;-72
2021/12/16 09:03:14;;;;;;;25.45;22.52;;;;;;;2.68;100.00;97657.75;5072048;28;24480;-72
2021/12/16 09:05:41;;;;;;;24.95;22.00;;;;;;;2.64;100.00;97664.59;5071961;28;24488;-72
2021/12/16 09:08:08;;;;;;;24.60;21.80;;;;;;;2.65;100.00;97665.44;5076962;28;24999;-72
2021/12/16 09:10:37;;;;;;;31.23;22.23;;;;;;;2.62;100.00;97662.88;5092025;28;24425;-72
2021/12/16 09:13:09;;;;;;;27.75;21.25;;;;;;;2.56;100.00;97667.97;5091989;28;24425;-71
2021/12/16 09:15:39;;;;;;;24.17;21.05;;;;;;;2.62;100.00;97670.53;5092008;28;24417;-72
2021/12/16 09:18:08;;;;;;;21.33;19.13;;;;;;;2.61;100.00;97661.19;5092159;28;24479;-72
2021/12/16 09:20:35;;;;;;;21.08;18.88;;;;;;;2.75;100.00;97661.16;5092176;28;24925;-72
2021/12/16 09:23:03;;;;;;;19.40;17.40;;;;;;;2.76;100.00;97671.38;5074530;22;22202;-72
2021/12/16 09:25:29;;;;;;;21.08;18.92;;;;;;;2.73;100.00;97665.41;5042960;28;24486;-72
2021/12/16 09:27:56;;;;;;;20.27;18.17;;;;;;;2.75;100.00;97674.81;5051852;28;24419;-72
2021/12/16 09:30:26;;;;;;;19.95;17.73;;;;;;;2.83;100.00;97673.09;5051656;28;24827;-73
2021/12/16 09:32:57;;;;;;;22.97;18.77;;;;;;;2.78;100.00;97682.47;5051324;28;24962;-74
2021/12/16 09:35:26;;;;;;;18.83;17.02;;;;;;;2.81;100.00;97679.88;5038601;28;24532;-73
2021/12/16 09:37:54;;;;;;;21.30;19.20;;;;;;;2.78;100.00;97687.59;5043824;28;24428;-72
2021/12/16 09:40:24;;;;;;;22.00;19.48;;;;;;;2.75;100.00;97694.44;5011583;28;24972;-72
2021/12/16 09:42:51;;;;;;;18.55;16.75;;;;;;;2.86;100.00;97685.88;5011765;28;24420;-73
2021/12/16 09:45:18;;;;;;;20.77;18.57;;;;;;;2.88;100.00;97680.75;5032767;28;24439;-73
2021/12/16 09:47:46;;;;;;;19.73;17.73;;;;;;;2.92;100.00;97680.72;5041558;28;24431;-73
2021/12/16 09:50:18;;;;;;;20.02;17.10;;;;;;;3.01;100.00;97682.44;5044478;28;24848;-72
2021/12/16 09:52:46;;;;;;;16.27;14.57;;;;;;;3.10;100.00;97694.34;5051005;28;24952;-72
2021/12/16 09:55:12;;;;;;;16.30;14.65;;;;;;;3.16;100.00;97684.09;5050683;28;24435;-73
2021/12/16 09:57:39;;;;;;;17.27;13.88;;;;;;;3.23;100.00;97682.38;5051177;28;24950;-74
2021/12/16 10:00:09;;;;;;;16.05;14.35;;;;;;;3.36;100.00;97690.00;5047801;28;24423;-72
2021/12/16 10:02:36;;;;;;;18.77;15.63;;;;;;;3.35;100.00;97688.28;5038818;28;24428;-72
2021/12/16 10:05:06;;;;;;;15.18;13.65;;;;;;;3.37;100.00;97675.47;5050521;28;24952;-73
2021/12/16 10:07:34;;;;;;;16.02;14.32;;;;;;;3.51;100.00;97683.97;5049601;28;24447;-73
2021/12/16 10:10:07;;;;;;;16.67;14.88;;;;;;;3.53;100.00;97683.97;5011303;28;24506;-73
2021/12/16 10:12:38;;;;;;;28.23;15.13;;;;;;;3.49;100.00;97682.28;5011575;28;24427;-72
2021/12/16 10:17:22;;;;;;;18.05;16.15;;;;;;;3.40;100.00;97681.44;5011100;28;24420;-72
2021/12/16 10:17:55;;;;;;;17.10;15.13;;;;;;;3.45;100.00;97685.69;5010789;28;24790;-72
2021/12/16 10:20:27;;;;;;;17.75;15.25;;;;;;;3.52;100.00;97684.81;5011302;28;24953;-72
2021/12/16 10:23:02;;;;;;;28.85;25.17;;;;;;;3.42;100.00;97676.31;5010651;28;24463;-73
2021/12/16 10:25:33;;;;;;;23.30;19.13;;;;;;;3.44;100.00;97674.59;5036325;28;24424;-73
2021/12/16 10:28:06;;;;;;;18.40;16.40;;;;;;;3.50;100.00;97674.56;5011082;28;24420;-72
2021/12/16 10:30:41;;;;;;;16.83;15.15;;;;;;;3.57;100.00;97678.81;5010923;28;24427;-72
2021/12/16 10:33:14;;;;;;;20.00;16.70;;;;;;;3.49;100.00;97680.56;5023616;28;24439;-73
2021/12/16 10:35:41;;;;;;;21.90;16.57;;;;;;;3.46;100.00;97677.16;5041863;28;24422;-73
2021/12/16 10:38:09;;;;;;;17.67;15.90;;;;;;;3.47;100.00;97679.72;5041378;28;24435;-72
2021/12/16 10:40:43;;;;;;;18.90;15.50;;;;;;;3.50;100.00;97673.72;5039728;28;24435;-72
2021/12/16 10:43:13;;;;;;;17.60;15.77;;;;;;;3.59;100.00;97681.34;5043128;28;24436;-72
2021/12/16 10:45:43;;;;;;;19.93;15.90;;;;;;;3.63;100.00;97680.47;5050540;28;24952;-72
2021/12/16 10:48:21;;;;;;;20.05;17.77;;;;;;;3.60;100.00;97686.50;5054290;28;24538;-72
2021/12/16 10:51:05;;;;;;;20.27;15.90;;;;;;;3.70;100.00;97682.16;5054508;28;24422;-72
2021/12/16 10:53:48;;;;;;;17.00;15.40;;;;;;;3.83;100.00;97675.28;5054353;28;24527;-72
2021/12/16 10:56:18;;;;;;;22.75;18.00;;;;;;;3.92;100.00;97670.06;5054021;28;24465;-72
2021/12/16 10:58:50;;;;;;;19.02;16.05;;;;;;;3.93;100.00;97683.75;5054002;28;24424;-72
2021/12/16 11:01:37;;;;;;;18.23;16.33;;;;;;;4.05;100.00;97676.84;5054295;28;24454;-72
2021/12/16 11:04:08;;;;;;;18.13;16.27;;;;;;;4.04;100.00;97672.59;5024239;28;24436;-72
2021/12/16 11:06:36;;;;;;;18.10;15.95;;;;;;;4.07;100.00;97677.66;5014082;28;24539;-72
2021/12/16 11:09:33;;;;;;;16.70;15.00;;;;;;;4.06;100.00;97685.38;5013843;28;24439;-72
2021/12/16 11:12:26;;;;;;;17.17;15.23;;;;;;;4.04;100.00;97679.41;5014263;28;24443;-72
2021/12/16 11:14:56;;;;;;;17.02;14.48;;;;;;;4.06;100.00;97677.69;5033048;28;24435;-72
2021/12/16 11:17:25;;;;;;;16.90;13.45;;;;;;;4.16;100.00;97673.38;5048279;28;24470;-72
2021/12/16 11:19:56;;;;;;;16.48;14.57;;;;;;;4.24;100.00;97669.88;5053910;28;24423;-72
2021/12/16 11:22:28;;;;;;;16.58;14.43;;;;;;;4.11;100.00;97673.38;5053565;28;24964;-72
2021/12/16 11:24:55;;;;;;;15.60;13.70;;;;;;;4.15;100.00;97679.34;5053727;28;24430;-74
2021/12/16 11:27:30;;;;;;;16.23;14.52;;;;;;;4.32;100.00;97685.19;5053250;28;24466;-72
2021/12/16 11:29:58;;;;;;;14.82;13.23;;;;;;;4.35;100.00;97674.94;5053505;28;24481;-71
2021/12/16 11:32:43;;;;;;;16.85;12.18;;;;;;;4.34;100.00;97676.63;5053755;28;24492;-71
2021/12/16 11:35:35;;;;;;;14.13;12.63;;;;;;;4.49;100.00;97685.09;5013616;28;24428;-72
2021/12/16 11:38:09;;;;;;;13.88;12.48;;;;;;;4.48;100.00;97679.06;5013524;28;24790;-72
2021/12/16 11:40:55;;;;;;;12.73;11.50;;;;;;;4.38;100.00;97679.19;5013750;28;24519;-72
2021/12/16 11:43:33;;;;;;;12.02;10.88;;;;;;;4.21;100.00;97679.31;5013933;28;24422;-72
2021/12/16 11:46:00;;;;;;;12.35;10.40;;;;;;;4.18;100.00;97677.59;5013342;28;24424;-72
2021/12/16 11:48:31;;;;;;;11.80;10.52;;;;;;;4.19;100.00;97676.75;5013458;28;24945;-71
2021/12/16 11:51:07;;;;;;;12.27;10.18;;;;;;;4.26;100.00;97678.38;5013515;28;24427;-72
2021/12/16 11:53:40;;;;;;;12.93;11.60;;;;;;;4.64;100.00;97684.09;5013611;28;24432;-72
2021/12/16 11:56:07;;;;;;;13.27;11.63;;;;;;;4.64;100.00;97681.53;5013391;28;24423;-72
2021/12/16 11:58:35;;;;;;;11.40;10.23;;;;;;;4.61;100.00;97678.13;5012745;28;24417;-73
2021/12/16 12:01:12;;;;;;;13.90;11.30;;;;;;;4.54;100.00;97683.31;5013617;28;24482;-74
2021/12/16 12:03:39;;;;;;;13.00;11.70;;;;;;;4.58;100.00;97683.28;5013332;28;24516;-73
2021/12/16 12:06:05;;;;;;;13.10;11.88;;;;;;;4.50;100.00;97684.22;5012958;28;24412;-72
2021/12/16 12:08:32;;;;;;;13.55;12.15;;;;;;;4.55;100.00;97685.00;5012935;28;25008;-72
2021/12/16 12:11:03;;;;;;;12.73;11.52;;;;;;;4.46;100.00;97683.38;5013653;28;24420;-72
2021/12/16 12:13:36;;;;;;;13.85;11.90;;;;;;;4.49;100.00;97680.81;5013128;28;24798;-72
2021/12/16 12:16:08;;;;;;;13.83;12.43;;;;;;;4.46;100.00;97677.41;5012702;28;24988;-72
2021/12/16 12:18:39;;;;;;;13.67;12.27;;;;;;;4.56;100.00;97679.00;5013195;28;24984;-71
2021/12/16 12:21:20;;;;;;;12.93;11.63;;;;;;;4.61;100.00;97679.84;5013059;28;24423;-72
2021/12/16 12:23:50;;;;;;;14.18;12.70;;;;;;;4.57;100.00;97673.03;5012885;28;24428;-72
2021/12/16 12:26:19;;;;;;;13.55;12.15;;;;;;;4.56;100.00;97674.75;5012327;28;25012;-72
2021/12/16 12:28:46;;;;;;;14.48;11.73;;;;;;;4.63;100.00;97664.41;5012792;28;24877;-72
2021/12/16 12:31:16;;;;;;;13.25;11.65;;;;;;;4.75;100.00;97667.75;5012798;28;24825;-72
2021/12/16 12:33:43;;;;;;;12.20;11.10;;;;;;;4.72;100.00;97665.19;5012773;28;24483;-72
2021/12/16 12:36:10;;;;;;;10.38;9.38;;;;;;;4.67;100.00;97658.38;5012477;28;24423;-72
2021/12/16 12:38:37;;;;;;;12.18;10.13;;;;;;;4.61;100.00;97651.59;5021209;28;24427;-72
2021/12/16 12:41:04;;;;;;;15.27;10.55;;;;;;;4.62;100.00;97653.31;5032529;28;24474;-72
2021/12/16 12:43:33;;;;;;;13.50;11.52;;;;;;;4.65;100.00;97653.28;5032369;28;24423;-72
2021/12/16 12:46:01;;;;;;;12.68;11.02;;;;;;;4.70;100.00;97646.38;5031985;28;24957;-72
2021/12/16 12:48:33;;;;;;;15.07;12.15;;;;;;;4.79;100.00;97643.75;5032150;28;24533;-72
2021/12/16 12:51:00;;;;;;;17.00;12.13;;;;;;;4.77;100.00;97637.75;5032209;28;24424;-73
2021/12/16 12:53:31;;;;;;;14.80;13.23;;;;;;;4.68;100.00;97642.16;5031901;28;24824;-72
2021/12/16 12:56:10;;;;;;;13.73;12.40;;;;;;;4.70;100.00;97648.09;5032096;28;24419;-70
2021/12/16 12:58:49;;;;;;;13.90;12.40;;;;;;;4.61;100.00;97647.31;5032646;28;24439;-71
2021/12/16 13:01:15;;;;;;;15.77;13.20;;;;;;;4.58;100.00;97647.34;5032243;28;24412;-71
2021/12/16 13:03:43;;;;;;;13.33;11.93;;;;;;;4.53;100.00;97645.69;5031954;28;24509;-71
2021/12/16 13:06:12;;;;;;;18.27;12.60;;;;;;;4.49;100.00;97638.91;5035956;28;25014;-71
2021/12/16 13:08:41;;;;;;;15.35;12.70;;;;;;;4.48;100.00;97643.16;5041502;28;24427;-72
2021/12/16 13:11:13;;;;;;;14.57;13.07;;;;;;;4.50;100.00;97644.00;5043064;28;24501;-71
2021/12/16 13:13:57;;;;;;;21.88;14.57;;;;;;;4.50;100.00;97653.44;5051884;28;24430;-72
2021/12/16 13:16:51;;;;;;;14.68;12.05;;;;;;;4.49;100.00;97652.56;5051361;28;24823;-73